createdAt,value
2018-04-18T00:01:55.329Z,4.13
2018-04-18T00:04:23.533Z,3.30
2018-04-18T00:06:50.964Z,4.03
2018-04-18T00:09:18.792Z,2.63
2018-04-18T00:11:46.232Z,3.30
2018-04-18T00:14:14.058Z,2.90
2018-04-18T00:16:41.508Z,3.00
2018-04-18T00:19:08.944Z,3.30
2018-04-18T00:21:37.149Z,2.80
2018-04-18T00:24:04.581Z,3.53
2018-04-18T00:26:32.020Z,2.77
2018-04-18T00:28:59.968Z,3.00
2018-04-18T00:31:28.152Z,3.10
2018-04-18T00:33:55.584Z,3.30
2018-04-18T00:36:23.025Z,3.10
2018-04-18T00:38:50.452Z,3.07
2018-04-18T00:41:17.892Z,3.30
2018-04-18T00:43:46.111Z,4.77
2018-04-18T00:46:13.553Z,3.77
2018-04-18T00:48:41.755Z,2.73
2018-04-18T00:51:09.195Z,2.63
2018-04-18T00:53:37.012Z,2.57
2018-04-18T00:56:05.221Z,3.43
2018-04-18T00:58:33.045Z,2.90
2018-04-18T01:01:01.249Z,3.07
2018-04-18T01:03:29.436Z,2.60
2018-04-18T01:05:57.273Z,3.20
2018-04-18T01:08:25.096Z,3.13
2018-04-18T01:10:52.546Z,3.00
2018-04-18T01:13:20.741Z,3.00
2018-04-18T01:15:48.165Z,2.83
2018-04-18T01:18:15.592Z,2.63
2018-04-18T01:20:43.789Z,2.97
2018-04-18T01:23:11.217Z,3.30
2018-04-18T01:25:38.652Z,3.30
2018-04-18T01:28:06.085Z,3.73
2018-04-18T01:30:33.520Z,3.20
2018-04-18T01:33:01.355Z,2.77
2018-04-18T01:35:28.788Z,3.20
2018-04-18T01:37:56.213Z,2.93
2018-04-18T01:40:24.424Z,3.00
2018-04-18T01:42:52.605Z,3.20
2018-04-18T01:45:20.032Z,3.73
2018-04-18T01:47:47.469Z,3.47
2018-04-18T01:50:14.917Z,3.17
2018-04-18T01:52:48.026Z,2.87
2018-04-18T01:55:16.656Z,2.77
2018-04-18T01:57:44.552Z,3.50
2018-04-18T02:00:12.050Z,3.00
2018-04-18T02:02:39.625Z,2.67
2018-04-18T02:05:07.905Z,2.93
2018-04-18T02:07:35.418Z,3.27
2018-04-18T02:10:02.930Z,3.20
2018-04-18T02:12:31.263Z,3.10
2018-04-18T02:14:58.863Z,3.17
2018-04-18T02:17:26.361Z,3.10
2018-04-18T03:03:35.079Z,3.37
2018-04-18T03:06:03.342Z,3.50
2018-04-18T03:08:30.906Z,3.30
2018-04-18T03:10:59.183Z,3.00
2018-04-18T03:13:26.673Z,3.23
2018-04-18T03:15:54.949Z,3.93
2018-04-18T03:18:22.507Z,4.73
2018-04-18T03:20:50.007Z,3.60
2018-04-18T03:23:18.254Z,4.30
2018-04-18T03:25:45.819Z,3.20
2018-04-18T03:28:13.324Z,2.90
2018-04-18T03:30:40.841Z,3.20
2018-04-18T03:33:08.365Z,4.23
2018-04-18T03:35:36.671Z,4.10
2018-04-18T03:38:04.653Z,2.87
2018-04-18T03:40:32.153Z,2.73
2018-04-18T03:42:59.658Z,3.77
2018-04-18T03:45:27.160Z,4.47
2018-04-18T03:47:55.417Z,3.70
2018-04-18T03:50:22.908Z,4.10
2018-04-18T03:52:51.189Z,3.50
2018-04-18T03:55:19.461Z,3.10
2018-04-18T03:57:46.956Z,3.80
2018-04-18T04:00:15.288Z,3.43
2018-04-18T04:02:42.795Z,4.07
2018-04-18T04:05:10.282Z,4.00
2018-04-18T04:07:38.672Z,3.93
2018-04-18T04:10:06.921Z,4.03
2018-04-18T04:12:34.518Z,3.63
2018-04-18T04:15:02.087Z,4.07
2018-04-18T04:17:42.032Z,3.60
2018-04-18T04:20:21.474Z,3.70
2018-04-18T04:23:00.997Z,4.70
2018-04-18T04:25:28.507Z,3.70
2018-04-18T04:27:55.986Z,3.63
2018-04-18T04:30:24.248Z,4.27
2018-04-18T04:32:51.828Z,4.37
2018-04-18T04:35:19.430Z,3.80
2018-04-18T04:37:46.944Z,4.30
2018-04-18T04:40:14.423Z,4.20
2018-04-18T04:42:41.929Z,4.50
2018-04-18T04:45:09.418Z,4.20
2018-04-18T04:47:36.906Z,4.67
2018-04-18T04:50:04.392Z,4.70
2018-04-18T04:52:31.881Z,6.13
2018-04-18T04:54:59.380Z,4.90
2018-04-18T04:57:27.716Z,3.90
2018-04-18T04:59:55.241Z,4.40
2018-04-18T05:02:22.845Z,3.93
2018-04-18T05:04:50.418Z,4.87
2018-04-18T05:07:17.940Z,4.07
2018-04-18T05:09:46.276Z,3.90
2018-04-18T05:12:14.255Z,3.83
2018-04-18T05:14:41.781Z,4.80
2018-04-18T05:17:10.037Z,3.13
2018-04-18T05:19:37.542Z,4.73
2018-04-18T05:22:05.507Z,4.90
2018-04-18T05:24:33.411Z,5.30
2018-04-18T05:27:00.898Z,4.23
2018-04-18T05:29:28.797Z,4.50
2018-04-18T05:31:56.344Z,5.13
2018-04-18T05:34:23.861Z,4.60
2018-04-18T05:36:51.459Z,4.43
2018-04-18T05:39:19.051Z,4.63
2018-04-18T05:41:46.643Z,8.43
2018-04-18T05:44:14.147Z,5.20
2018-04-18T05:46:41.720Z,4.93
2018-04-18T05:49:09.287Z,7.67
2018-04-18T05:51:37.639Z,5.77
2018-04-18T05:54:05.146Z,5.67
2018-04-18T05:56:32.649Z,4.27
2018-04-18T05:59:00.138Z,5.53
2018-04-18T06:01:27.654Z,4.97
2018-04-18T06:03:55.143Z,5.40
2018-04-18T06:06:23.431Z,4.30
2018-04-18T06:08:51.003Z,4.10
2018-04-18T06:11:18.637Z,4.87
2018-04-18T06:13:46.132Z,5.83
2018-04-18T06:16:14.411Z,5.10
2018-04-18T06:18:41.919Z,5.70
2018-04-18T06:21:09.447Z,5.20
2018-04-18T06:23:37.017Z,5.13
2018-04-18T06:26:05.374Z,5.40
2018-04-18T06:28:32.897Z,3.90
2018-04-18T06:31:01.250Z,5.07
2018-04-18T06:33:28.827Z,4.57
2018-04-18T06:35:57.120Z,4.53
2018-04-18T06:38:24.606Z,4.50
2018-04-18T06:40:52.871Z,5.37
2018-04-18T06:43:20.436Z,5.03
2018-04-18T06:45:47.945Z,4.10
2018-04-18T06:48:15.509Z,3.97
2018-04-18T06:50:43.098Z,3.87
2018-04-18T06:53:10.663Z,4.77
2018-04-18T06:55:38.167Z,5.00
2018-04-18T06:58:05.668Z,4.30
2018-04-18T07:00:33.187Z,4.63
2018-04-18T07:03:00.760Z,4.23
2018-04-18T07:05:28.272Z,4.33
2018-04-18T07:07:55.770Z,6.33
2018-04-18T07:10:24.023Z,4.90
2018-04-18T07:12:51.588Z,4.47
2018-04-18T07:17:53.060Z,4.50
2018-04-18T07:20:20.568Z,4.43
2018-04-18T07:22:48.143Z,3.90
2018-04-18T07:25:16.485Z,4.40
2018-04-18T07:27:43.988Z,4.43
2018-04-18T07:30:11.519Z,4.13
2018-04-18T07:32:39.091Z,4.67
2018-04-18T07:35:06.600Z,3.40
2018-04-18T07:37:34.169Z,3.50
2018-04-18T07:40:02.458Z,4.10
2018-04-18T07:42:29.959Z,4.50
2018-04-18T07:44:57.499Z,3.70
2018-04-18T07:47:25.007Z,4.37
2018-04-18T07:49:52.508Z,4.47
2018-04-18T07:52:20.075Z,4.07
2018-04-18T07:54:47.585Z,3.20
2018-04-18T07:57:15.849Z,3.80
2018-04-18T07:59:43.409Z,4.00
2018-04-18T08:02:10.996Z,3.80
2018-04-18T08:04:38.591Z,3.27
2018-04-18T08:07:06.866Z,4.20
2018-04-18T08:09:34.355Z,3.00
2018-04-18T08:12:01.858Z,3.00
2018-04-18T08:14:29.343Z,3.70
2018-04-18T08:16:56.836Z,3.20
2018-04-18T08:19:24.341Z,2.40
2018-04-18T08:21:51.857Z,3.23
2018-04-18T08:24:19.427Z,3.60
2018-04-18T08:26:46.935Z,4.43
2018-04-18T08:29:15.263Z,3.63
2018-04-18T08:31:42.797Z,3.60
2018-04-18T08:34:10.371Z,3.00
2018-04-18T08:36:37.958Z,3.57
2018-04-18T08:39:05.531Z,3.50
2018-04-18T08:41:33.053Z,3.77
2018-04-18T08:44:00.615Z,3.03
2018-04-18T08:46:28.968Z,3.50
2018-04-18T08:48:56.503Z,3.60
2018-04-18T08:51:24.839Z,3.50
2018-04-18T08:53:52.443Z,4.37
2018-04-18T08:56:20.782Z,4.30
2018-04-18T08:58:48.289Z,4.47
2018-04-18T09:01:15.785Z,4.73
2018-04-18T09:03:44.116Z,3.40
2018-04-18T09:06:11.634Z,4.10
2018-04-18T09:08:40.031Z,3.63
2018-04-18T09:11:07.548Z,4.70
2018-04-18T09:13:35.039Z,3.57
2018-04-18T09:16:02.607Z,3.30
2018-04-18T09:18:30.113Z,4.00
2018-04-18T09:20:58.391Z,4.30
2018-04-18T09:23:26.735Z,4.57
2018-04-18T09:25:54.257Z,4.00
2018-04-18T09:28:22.592Z,5.60
2018-04-18T09:30:50.101Z,4.53
2018-04-18T09:33:18.369Z,3.70
2018-04-18T09:35:45.943Z,3.93
2018-04-18T09:38:13.536Z,3.60
2018-04-18T09:40:41.068Z,4.90
2018-04-18T09:43:08.633Z,4.00
2018-04-18T09:45:36.140Z,4.10
2018-04-18T09:48:04.425Z,4.00
2018-04-18T09:50:31.988Z,3.77
2018-04-18T09:53:00.257Z,4.10
2018-04-18T09:55:27.768Z,3.70
2018-04-18T09:57:56.026Z,3.20
2018-04-18T10:00:29.187Z,3.50
2018-04-18T10:03:02.501Z,3.43
2018-04-18T10:05:30.008Z,2.33
2018-04-18T10:07:57.513Z,3.87
2018-04-18T10:10:25.034Z,4.13
2018-04-18T10:12:52.542Z,3.30
2018-04-18T10:15:20.805Z,3.27
2018-04-18T10:17:48.372Z,3.10
2018-04-18T10:20:16.646Z,3.77
2018-04-18T10:22:44.164Z,2.93
2018-04-18T10:25:12.424Z,2.80
2018-04-18T10:27:39.937Z,2.80
2018-04-18T10:30:07.508Z,2.90
2018-04-18T10:32:35.037Z,3.87
2018-04-18T10:35:03.375Z,4.20
2018-04-18T10:37:30.901Z,3.63
2018-04-18T10:39:58.475Z,3.10
2018-04-18T10:42:26.050Z,2.93
2018-04-18T10:44:53.542Z,2.93
2018-04-18T10:47:21.040Z,3.07
2018-04-18T10:49:48.605Z,2.80
2018-04-18T10:52:16.183Z,2.93
2018-04-18T10:54:43.700Z,2.93
2018-04-18T10:57:11.964Z,3.03
2018-04-18T10:59:39.460Z,3.37
2018-04-18T11:02:06.967Z,3.13
2018-04-18T11:04:34.532Z,3.20
2018-04-18T11:07:02.049Z,3.20
2018-04-18T11:09:30.329Z,3.00
2018-04-18T11:11:57.828Z,2.70
2018-04-18T11:14:25.405Z,2.60
2018-04-18T11:16:52.923Z,2.53
2018-04-18T11:19:20.414Z,2.97
2018-04-18T11:21:48.709Z,2.50
2018-04-18T11:24:16.980Z,2.80
2018-04-18T11:26:44.573Z,2.80
2018-04-18T11:29:12.069Z,2.70
2018-04-18T11:31:39.585Z,2.77
2018-04-18T11:34:07.084Z,2.77
2018-04-18T11:36:34.594Z,2.60
2018-04-18T11:39:02.202Z,3.90
2018-04-18T11:41:30.492Z,2.60
2018-04-18T11:43:58.370Z,2.93
2018-04-18T11:46:25.872Z,2.53
2018-04-18T11:48:53.377Z,2.70
2018-04-18T11:51:20.884Z,2.73
2018-04-18T11:53:49.146Z,2.27
2018-04-18T11:56:16.649Z,3.50
2018-04-18T11:58:44.933Z,2.30
2018-04-18T12:01:12.453Z,4.23
2018-04-18T12:03:40.015Z,2.67
2018-04-18T12:06:08.003Z,2.60
2018-04-18T12:08:35.517Z,2.40
2018-04-18T12:11:03.796Z,2.20
2018-04-18T12:13:32.060Z,4.57
2018-04-18T12:15:59.577Z,2.77
2018-04-18T12:18:27.143Z,3.10
2018-04-18T12:20:54.751Z,3.10
2018-04-18T12:23:22.257Z,2.33
2018-04-18T12:25:49.760Z,2.73
2018-04-18T12:28:17.318Z,2.23
2018-04-18T12:30:44.850Z,2.77
2018-04-18T12:33:12.358Z,2.97
2018-04-18T12:35:39.872Z,2.50
2018-04-18T12:38:07.363Z,2.40
2018-04-18T12:40:34.855Z,2.20
2018-04-18T12:43:03.312Z,2.00
2018-04-18T12:45:30.882Z,2.37
2018-04-18T12:47:58.372Z,3.83
2018-04-18T12:50:25.876Z,2.87
2018-04-18T12:52:53.375Z,3.37
2018-04-18T12:55:20.868Z,2.43
2018-04-18T12:57:48.450Z,2.90
2018-04-18T13:00:16.725Z,2.03
2018-04-18T13:02:44.295Z,3.23
2018-04-18T13:05:11.805Z,2.40
2018-04-18T13:07:39.298Z,3.83
2018-04-18T13:10:06.797Z,2.33
2018-04-18T13:12:34.319Z,2.30
2018-04-18T13:15:01.829Z,2.50
2018-04-18T13:17:29.341Z,3.20
2018-04-18T13:19:56.883Z,2.30
2018-04-18T13:22:24.409Z,2.70
2018-04-18T13:24:51.905Z,2.10
2018-04-18T13:27:19.479Z,2.80
2018-04-18T13:29:47.002Z,2.83
2018-04-18T13:32:14.576Z,2.30
2018-04-18T13:34:42.843Z,2.60
2018-04-18T13:37:11.117Z,2.63
2018-04-18T13:39:39.389Z,2.50
2018-04-18T13:42:06.893Z,2.90
2018-04-18T13:44:34.380Z,2.97
2018-04-18T13:47:02.718Z,2.57
2018-04-18T13:49:30.216Z,2.70
2018-04-18T13:51:58.492Z,2.67
2018-04-18T13:54:26.757Z,2.30
2018-04-18T13:56:54.365Z,2.67
2018-04-18T13:59:21.865Z,2.57
2018-04-18T14:01:49.354Z,2.30
2018-04-18T14:04:16.855Z,3.00
2018-04-18T14:06:44.357Z,2.13
2018-04-18T14:09:11.936Z,3.00
2018-04-18T14:11:39.445Z,2.37
2018-04-18T14:14:06.945Z,2.80
2018-04-18T14:16:35.221Z,3.00
2018-04-18T14:19:03.491Z,2.40
2018-04-18T14:21:30.999Z,2.50
2018-04-18T14:23:58.501Z,2.03
2018-04-18T14:26:26.004Z,3.43
2018-04-18T14:28:53.500Z,3.70
2018-04-18T14:31:21.764Z,2.77
2018-04-18T14:33:49.253Z,2.10
2018-04-18T14:36:17.536Z,2.63
2018-04-18T14:38:45.799Z,2.10
2018-04-18T14:41:13.312Z,2.63
2018-04-18T14:43:40.839Z,2.20
2018-04-18T14:46:08.337Z,2.27
2018-04-18T14:48:36.598Z,2.90
2018-04-18T14:51:04.871Z,2.10
2018-04-18T14:53:32.442Z,1.93
2018-04-18T14:55:59.978Z,3.30
2018-04-18T14:58:27.482Z,2.40
2018-04-18T15:00:54.988Z,1.90
2018-04-18T15:03:23.233Z,2.03
2018-04-18T15:05:50.735Z,1.70
2018-04-18T15:08:19.076Z,1.87
2018-04-18T15:10:46.638Z,2.27
2018-04-18T15:13:14.177Z,2.10
2018-04-18T15:15:41.714Z,3.00
2018-04-18T15:18:09.222Z,2.10
2018-04-18T15:20:36.727Z,3.60
2018-04-18T15:23:04.299Z,1.70
2018-04-18T15:25:31.896Z,1.60
2018-04-18T15:27:59.431Z,2.37
2018-04-18T15:30:26.932Z,2.20
2018-04-18T15:32:54.440Z,2.20
2018-04-18T15:35:21.944Z,1.83
2018-04-18T15:37:49.439Z,1.70
2018-04-18T15:40:16.937Z,1.50
2018-04-18T15:42:45.222Z,1.58
2018-04-18T15:45:13.501Z,1.60
2018-04-18T15:47:41.967Z,1.95
2018-04-18T15:50:09.483Z,1.77
2018-04-18T15:52:36.995Z,1.60
2018-04-18T15:55:04.487Z,1.40
2018-04-18T15:57:31.991Z,1.63
2018-04-18T15:59:59.505Z,1.70
2018-04-18T16:02:27.006Z,1.40
2018-04-18T16:04:55.264Z,1.30
2018-04-18T16:07:22.831Z,1.60
2018-04-18T16:09:50.368Z,1.40
2018-04-18T16:12:17.939Z,1.60
2018-04-18T16:14:45.532Z,1.50
2018-04-18T16:17:13.157Z,1.43
2018-04-18T16:19:41.438Z,3.27
2018-04-18T16:22:09.834Z,1.50
2018-04-18T16:24:38.183Z,1.40
2018-04-18T16:27:05.714Z,1.43
2018-04-18T16:29:43.125Z,1.70
2018-04-18T16:32:11.467Z,1.70
2018-04-18T16:34:39.750Z,1.80
2018-04-18T16:37:07.251Z,2.17
2018-04-18T16:39:35.139Z,1.77
2018-04-18T16:42:02.663Z,1.63
2018-04-18T16:44:30.163Z,1.90
2018-04-18T16:46:58.446Z,2.00
2018-04-18T16:49:26.384Z,2.13
2018-04-18T16:51:54.368Z,1.87
2018-04-18T16:54:21.875Z,2.20
2018-04-18T16:56:50.255Z,1.87
2018-04-18T16:59:18.632Z,2.20
2018-04-18T17:01:46.139Z,2.10
2018-04-18T17:04:13.645Z,1.90
2018-04-18T17:06:41.283Z,1.90
2018-04-18T17:09:08.735Z,2.90
2018-04-18T17:11:36.998Z,2.77
2018-04-18T17:14:04.504Z,1.80
2018-04-18T17:16:32.003Z,2.67
2018-04-18T17:18:59.576Z,2.30
2018-04-18T17:21:27.160Z,1.80
2018-04-18T17:23:54.674Z,2.00
2018-04-18T17:26:22.177Z,2.10
2018-04-18T17:28:49.675Z,2.27
2018-04-18T17:31:17.208Z,1.87
2018-04-18T17:33:44.702Z,2.50
2018-04-18T17:36:12.200Z,2.50
2018-04-18T17:38:40.548Z,2.27
2018-04-18T17:41:08.061Z,2.67
2018-04-18T17:43:37.283Z,2.40
2018-04-18T17:46:04.972Z,2.30
2018-04-18T17:48:33.620Z,2.60
2018-04-18T17:51:01.200Z,2.30
2018-04-18T17:53:28.785Z,3.10
2018-04-18T17:55:57.065Z,2.67
2018-04-18T17:58:24.593Z,3.33
2018-04-18T18:00:52.101Z,2.47
2018-04-18T18:03:20.453Z,2.73
2018-04-18T18:05:47.968Z,2.53
2018-04-18T18:08:15.532Z,2.23
2018-04-18T18:10:43.444Z,2.53
2018-04-18T18:13:11.775Z,2.60
2018-04-18T18:15:39.387Z,3.17
2018-04-18T18:18:07.952Z,2.43
2018-04-18T18:20:35.504Z,2.43
2018-04-18T18:23:03.012Z,3.00
2018-04-18T18:25:31.283Z,2.77
2018-04-18T18:28:04.600Z,2.80
2018-04-18T18:30:33.683Z,3.17
2018-04-18T18:33:01.267Z,3.23
2018-04-18T18:35:30.383Z,3.40
2018-04-18T18:37:58.343Z,2.87
2018-04-18T18:40:26.704Z,2.90
2018-04-18T18:42:54.288Z,2.70
2018-04-18T18:45:22.594Z,3.10
2018-04-18T18:47:51.379Z,3.30
2018-04-18T18:50:19.789Z,3.20
2018-04-18T18:52:48.081Z,2.90
2018-04-18T18:55:16.452Z,2.93
2018-04-18T18:57:44.035Z,2.93
2018-04-18T19:00:12.366Z,2.80
2018-04-18T19:02:39.914Z,3.07
2018-04-18T19:05:08.235Z,3.63
2018-04-18T19:07:37.629Z,2.87
2018-04-18T19:10:05.799Z,2.93
2018-04-18T19:12:35.364Z,4.03
2018-04-18T19:15:02.949Z,3.03
2018-04-18T19:17:30.535Z,3.10
2018-04-18T19:19:58.091Z,3.20
2018-04-18T19:22:25.670Z,3.70
2018-04-18T19:24:53.262Z,2.90
2018-04-18T19:27:21.531Z,2.80
2018-04-18T19:29:49.108Z,3.10
2018-04-18T19:32:17.511Z,4.00
2018-04-18T19:34:45.809Z,4.27
2018-04-18T19:37:13.348Z,3.40
2018-04-18T19:39:40.919Z,3.20
2018-04-18T19:42:08.845Z,3.30
2018-04-18T19:44:36.368Z,3.87
2018-04-18T19:47:04.665Z,3.40
2018-04-18T19:49:32.228Z,3.73
2018-04-18T19:52:00.240Z,3.67
2018-04-18T19:54:27.754Z,3.60
2018-04-18T19:56:55.383Z,3.97
2018-04-18T19:59:23.374Z,3.70
2018-04-18T20:01:50.997Z,3.90
2018-04-18T20:04:18.519Z,3.67
2018-04-18T20:06:46.824Z,3.80
2018-04-18T20:09:14.332Z,5.10
2018-04-18T20:11:41.924Z,5.77
2018-04-18T20:14:09.427Z,4.60
2018-04-18T20:16:37.025Z,3.77
2018-04-18T20:19:04.625Z,4.50
2018-04-18T20:21:32.916Z,3.70
2018-04-18T20:24:01.201Z,4.50
2018-04-18T20:26:29.479Z,5.60
2018-04-18T20:28:57.762Z,6.30
2018-04-18T20:31:25.350Z,5.03
2018-04-18T20:33:53.011Z,5.07
2018-04-18T20:36:20.592Z,5.03
2018-04-18T20:38:48.935Z,5.63
2018-04-18T20:41:16.454Z,6.00
2018-04-18T20:43:43.975Z,4.73
2018-04-18T20:46:11.556Z,5.47
2018-04-18T20:48:39.060Z,4.80
2018-04-18T20:51:07.391Z,4.97
2018-04-18T20:53:34.983Z,6.10
2018-04-18T20:56:02.555Z,6.17
2018-04-18T20:58:30.913Z,6.70
2018-04-18T21:00:58.424Z,5.63
2018-04-18T21:03:25.996Z,5.00
2018-04-18T21:05:53.576Z,4.40
2018-04-18T21:08:21.848Z,5.43
2018-04-18T21:10:49.334Z,4.37
2018-04-18T21:13:17.673Z,5.07
2018-04-18T21:15:45.265Z,3.80
2018-04-18T21:18:14.272Z,4.37
2018-04-18T21:20:41.833Z,5.13
2018-04-18T21:23:09.451Z,4.57
2018-04-18T21:25:37.797Z,4.47
2018-04-18T21:28:05.382Z,4.30
2018-04-18T21:30:32.899Z,3.87
2018-04-18T21:33:00.406Z,4.33
2018-04-18T21:35:27.974Z,4.80
2018-04-18T21:37:55.907Z,4.70
2018-04-18T21:40:24.242Z,5.17
2018-04-18T21:42:51.855Z,4.40
2018-04-18T21:45:20.114Z,4.00
2018-04-18T21:47:47.607Z,4.20
2018-04-18T21:50:15.115Z,4.40
2018-04-18T21:52:42.615Z,4.27
2018-04-18T21:55:10.603Z,4.70
2018-04-18T21:57:38.203Z,5.20
2018-04-18T22:00:06.471Z,4.70
2018-04-18T22:02:34.047Z,3.83
2018-04-18T22:05:02.379Z,4.83
2018-04-18T22:07:29.962Z,4.10
2018-04-18T22:09:57.468Z,4.77
2018-04-18T22:12:24.963Z,4.87
2018-04-18T22:14:53.300Z,4.83
2018-04-18T22:17:21.207Z,5.53
2018-04-18T22:19:48.786Z,4.70
2018-04-18T22:22:17.135Z,5.13
2018-04-18T22:24:44.747Z,5.60
2018-04-18T22:27:13.120Z,5.00
2018-04-18T22:29:40.631Z,4.80
2018-04-18T22:32:08.199Z,4.20
2018-04-18T22:34:35.715Z,4.97
2018-04-18T22:37:04.057Z,5.20
2018-04-18T22:39:31.637Z,4.57
2018-04-18T22:41:59.225Z,4.90
2018-04-18T22:44:26.796Z,4.50
2018-04-18T22:46:54.389Z,4.57
2018-04-18T22:49:21.858Z,5.70
2018-04-18T22:51:49.439Z,4.80
2018-04-18T22:54:17.011Z,5.80
2018-04-18T22:56:44.509Z,4.80
2018-04-18T22:59:12.819Z,5.03
2018-04-18T23:01:41.053Z,4.90
2018-04-18T23:04:08.560Z,5.20
2018-04-18T23:06:36.915Z,4.90
2018-04-18T23:09:04.430Z,6.00
2018-04-18T23:11:32.010Z,6.40
2018-04-18T23:13:59.525Z,5.57
2018-04-18T23:16:27.040Z,4.73
2018-04-18T23:18:54.539Z,5.50
2018-04-18T23:21:22.502Z,6.10
2018-04-18T23:23:51.189Z,6.33
2018-04-18T23:26:18.751Z,6.43
2018-04-18T23:28:47.030Z,5.67
2018-04-18T23:31:15.358Z,5.80
2018-04-18T23:33:43.634Z,5.63
2018-04-18T23:36:11.139Z,7.50
2018-04-18T23:38:38.714Z,6.90
2018-04-18T23:41:06.289Z,6.50
2018-04-18T23:43:34.573Z,6.23
2018-04-18T23:46:02.091Z,5.13
2018-04-18T23:48:29.600Z,5.13
2018-04-18T23:50:57.493Z,5.87
2018-04-18T23:53:24.991Z,5.80
2018-04-18T23:55:53.320Z,5.07
2018-04-18T23:58:20.847Z,6.23
